Terminal Aerodrome Forecast
Issued by NWS Jackson, MS

Home | Current Version | Previous Version | Text Only | Print | Product List | Glossary On
Versions: 1 2 3 4 5 6 7 8 9 10 11 12 13 14 15 16 17 18 19 20 21 22 23 24
000
FTUS44 KJAN 031800 AAA
TAFJAN
TAF AMD
KJAN 031810Z 0318/0418 19010KT P6SM SCT015 BKN025
     FM040600 16007KT 4SM BR OVC007
     FM041000 17005KT 2SM BR OVC005
     FM041700 19010KT P6SM VCSH BKN007 OVC015=

USA.gov is the U.S. government's official web portal to all federal, state and local government web resources and services.